Time;durP1;ratioP1;P1;durP2;ratioP2;P2;SDS_P1;SDS_P2;PMS_P1;PMS_P2;Temp;Humidity;BMP_temperature;BMP_pressure;BME280_temperature;BME280_humidity;BME280_pressure;Samples;Min_cycle;Max_cycle;Signal;HPM_P1;HPM_P2
2022/01/24 00:00:20;;;;;;;31.90;20.35;;;;;;;8.06;66.25;103422.97;5102888;28;20044;-58
2022/01/24 00:02:49;;;;;;;29.73;19.40;;;;;;;8.05;66.39;103415.06;5103652;28;20052;-57
2022/01/24 00:05:17;;;;;;;30.23;19.67;;;;;;;8.06;66.99;103419.44;5098418;28;20147;-59
2022/01/24 00:07:45;;;;;;;31.80;20.08;;;;;;;8.04;66.68;103421.41;5098738;28;20524;-58
2022/01/24 00:10:18;;;;;;;29.30;19.15;;;;;;;8.05;67.09;103423.97;5103632;28;20048;-59
2022/01/24 00:12:58;;;;;;;29.08;18.35;;;;;;;8.05;65.93;103421.28;5103725;28;20067;-58
2022/01/24 00:15:36;;;;;;;28.60;18.38;;;;;;;8.05;65.94;103418.59;5103455;28;20059;-59
2022/01/24 00:18:05;;;;;;;29.60;18.27;;;;;;;8.05;66.26;103415.06;5103694;28;20109;-59
2022/01/24 00:29:05;;;;;;;28.58;17.95;;;;;;;8.05;65.58;103428.47;5103408;28;20044;-58
2022/01/24 00:31:32;;;;;;;28.45;20.17;;;;;;;8.05;66.07;103423.09;5102417;28;20066;-58
2022/01/24 00:34:00;;;;;;;29.52;19.13;;;;;;;8.03;65.77;103412.53;5103444;28;20047;-59
2022/01/24 00:36:28;;;;;;;27.42;17.92;;;;;;;7.99;66.35;103416.50;5103114;28;20059;-59
2022/01/24 00:38:55;;;;;;;26.38;17.33;;;;;;;7.99;66.30;103413.81;5103544;28;20080;-59
2022/01/24 00:41:24;;;;;;;28.75;18.15;;;;;;;7.99;66.37;103412.97;5102943;28;20044;-58
2022/01/24 00:44:09;;;;;;;26.55;18.10;;;;;;;7.96;65.55;103414.09;5102674;28;20489;-59
2022/01/24 00:46:44;;;;;;;26.83;18.00;;;;;;;7.95;65.95;103411.56;5102833;28;20052;-58
2022/01/24 00:49:35;;;;;;;31.52;18.75;;;;;;;7.94;66.29;103412.53;5096865;28;20087;-59
2022/01/24 00:54:52;;;;;;;31.48;18.02;;;;;;;7.92;65.91;103407.31;5103538;28;20044;-59
2022/01/24 00:57:20;;;;;;;28.40;17.88;;;;;;;7.92;66.14;103411.84;5103151;28;20138;-59
2022/01/24 00:59:49;;;;;;;29.13;18.05;;;;;;;7.91;66.10;103410.16;5102709;28;20341;-58
2022/01/24 01:02:20;;;;;;;28.27;17.30;;;;;;;7.91;66.36;103410.16;5097312;28;20139;-58
2022/01/24 01:05:07;;;;;;;27.73;18.02;;;;;;;7.92;65.85;103409.16;5101981;28;20055;-58
2022/01/24 01:07:40;;;;;;;28.05;17.38;;;;;;;7.89;65.97;103407.63;5103756;28;20104;-58
2022/01/24 01:18:27;;;;;;;25.13;16.67;;;;;;;7.88;65.52;103407.75;5103391;28;20048;-58
2022/01/24 01:23:46;;;;;;;;;;;;;;;7.86;66.05;103401.69;5089963;28;20464;-58
2022/01/24 01:26:23;;;;;;;28.35;17.15;;;;;;;7.86;66.05;103407.91;5102856;28;19920;-58
2022/01/24 01:28:56;;;;;;;27.13;17.63;;;;;;;7.86;66.06;103407.06;5094437;28;20071;-58
2022/01/24 01:31:35;;;;;;;26.50;16.75;;;;;;;7.85;65.72;103414.22;5097605;28;20082;-58
2022/01/24 01:34:14;;;;;;;22.60;16.15;;;;;;;7.84;66.30;103416.06;5102858;28;20044;-59
2022/01/24 01:37:07;;;;;;;24.70;16.63;;;;;;;7.84;65.91;103405.34;5097596;28;20484;-59
2022/01/24 01:39:54;;;;;;;24.02;15.07;;;;;;;7.84;65.48;103393.81;5097559;28;20080;-58
2022/01/24 01:53:51;;;;;;;22.73;14.70;;;;;;;7.78;65.59;103389.84;5102394;28;20075;-58
2022/01/24 01:56:19;;;;;;;25.13;15.75;;;;;;;7.81;65.34;103402.97;5095547;28;20389;-59
2022/01/24 01:58:46;;;;;;;25.65;15.10;;;;;;;7.82;65.66;103406.50;5101630;28;20075;-59
2022/01/24 02:01:15;;;;;;;24.75;15.75;;;;;;;7.81;65.88;103410.16;5101262;28;20052;-59
2022/01/24 02:03:42;;;;;;;22.17;14.63;;;;;;;7.81;65.47;103411.00;5102353;28;20406;-58
2022/01/24 02:06:13;;;;;;;22.05;14.73;;;;;;;7.82;65.27;103401.13;5102047;28;20040;-59
2022/01/24 02:08:41;;;;;;;24.88;15.30;;;;;;;7.82;65.77;103401.13;5097551;28;20055;-58
2022/01/24 02:11:14;;;;;;;21.73;13.63;;;;;;;7.81;65.68;103400.28;5102552;28;20068;-58
2022/01/24 02:13:42;;;;;;;23.17;13.98;;;;;;;7.81;65.00;103397.59;5101261;28;20083;-58
2022/01/24 02:16:17;;;;;;;23.58;15.52;;;;;;;7.80;65.67;103400.44;5093208;28;20063;-58
2022/01/24 02:18:52;;;;;;;23.10;15.23;;;;;;;7.80;65.43;103400.44;5102132;28;20055;-59
2022/01/24 02:21:39;;;;;;;21.88;14.77;;;;;;;7.80;65.55;103392.41;5101160;28;20134;-59
2022/01/24 02:24:07;;;;;;;22.40;14.98;;;;;;;7.78;65.96;103389.84;5102013;28;20106;-59
2022/01/24 02:26:34;;;;;;;21.13;14.18;;;;;;;7.79;65.27;103388.03;5098647;28;20059;-57
2022/01/24 02:29:09;;;;;;;25.83;14.90;;;;;;;7.78;65.17;103389.84;5099254;28;20040;-58
2022/01/24 02:31:45;;;;;;;22.05;14.05;;;;;;;7.78;65.43;103384.50;5100626;28;20044;-58
2022/01/24 02:34:29;;;;;;;23.30;14.50;;;;;;;7.76;65.65;103385.63;5101887;28;20055;-58
2022/01/24 02:37:01;;;;;;;24.13;15.88;;;;;;;7.75;65.94;103383.94;5101562;28;20079;-59
2022/01/24 02:39:50;;;;;;;22.17;14.50;;;;;;;7.77;65.48;103385.50;5101270;28;20047;-58
2022/01/24 02:53:27;;;;;;;22.40;13.77;;;;;;;7.73;64.98;103378.72;5090731;28;20079;-57
2022/01/24 02:55:55;;;;;;;22.30;14.65;;;;;;;7.73;64.74;103377.88;5101419;28;20082;-58
2022/01/24 02:58:23;;;;;;;23.75;15.77;;;;;;;7.71;64.88;103371.81;5101061;28;20048;-58
2022/01/24 03:00:51;;;;;;;22.85;15.10;;;;;;;7.70;65.32;103370.97;5100372;28;20083;-58
2022/01/24 03:03:20;;;;;;;22.83;15.30;;;;;;;7.70;65.48;103370.13;5101057;28;20477;-59
2022/01/24 03:05:48;;;;;;;22.02;13.98;;;;;;;7.69;65.23;103374.66;5101554;28;20046;-58
2022/01/24 03:08:16;;;;;;;22.20;14.27;;;;;;;7.70;64.97;103375.50;5095830;28;20071;-59
2022/01/24 03:10:45;;;;;;;24.27;15.57;;;;;;;7.67;65.46;103371.25;5101249;28;20200;-58
2022/01/24 03:13:32;;;;;;;23.80;15.50;;;;;;;7.68;65.45;103369.44;5096187;28;20048;-57
2022/01/24 03:16:02;;;;;;;23.17;15.30;;;;;;;7.66;65.61;103364.22;5092171;28;20071;-59
2022/01/24 03:18:30;;;;;;;23.10;14.70;;;;;;;7.65;64.89;103364.38;5101144;28;20048;-58
2022/01/24 03:20:58;;;;;;;20.98;14.95;;;;;;;7.65;64.89;103362.53;5101219;28;20271;-58
2022/01/24 03:23:27;;;;;;;21.65;15.15;;;;;;;7.65;65.33;103369.72;5101558;28;20082;-58
2022/01/24 03:25:56;;;;;;;23.15;14.77;;;;;;;7.64;65.03;103362.66;5100892;28;20066;-58
2022/01/24 03:28:24;;;;;;;21.92;14.38;;;;;;;7.65;65.26;103364.38;5100153;28;20071;-59
2022/01/24 03:30:52;;;;;;;23.02;14.48;;;;;;;7.63;65.55;103355.63;5100306;28;20036;-58
2022/01/24 03:33:21;;;;;;;24.35;14.52;;;;;;;7.61;65.35;103352.25;5103086;28;20186;-58
2022/01/24 03:35:48;;;;;;;21.52;13.60;;;;;;;7.62;64.97;103352.09;5105047;28;20072;-59
2022/01/24 03:38:16;;;;;;;21.52;14.60;;;;;;;7.63;64.92;103347.59;5104247;28;20075;-58
2022/01/24 03:40:44;;;;;;;22.15;14.95;;;;;;;7.62;65.07;103353.94;5102664;28;20119;-58
2022/01/24 03:43:13;;;;;;;19.92;13.57;;;;;;;7.64;64.41;103352.81;5104053;28;20079;-59
2022/01/24 03:45:44;;;;;;;21.90;14.05;;;;;;;7.63;64.92;103359.16;5094935;28;20437;-59
2022/01/24 03:48:37;;;;;;;22.15;14.70;;;;;;;7.63;65.00;103358.31;5103753;28;20074;-59
2022/01/24 03:51:05;;;;;;;19.95;13.45;;;;;;;7.65;64.59;103348.31;5101487;28;20059;-58
2022/01/24 03:53:33;;;;;;;21.00;13.05;;;;;;;7.64;65.31;103350.13;5104406;28;20541;-56
2022/01/24 03:56:01;;;;;;;20.17;13.57;;;;;;;7.62;65.08;103352.09;5105061;28;20131;-58
2022/01/24 03:58:30;;;;;;;21.25;13.98;;;;;;;7.63;65.09;103358.31;5103608;28;20465;-59
2022/01/24 04:00:58;;;;;;;19.15;13.25;;;;;;;7.63;64.80;103366.34;5103713;28;20051;-58
2022/01/24 04:03:27;;;;;;;21.58;14.63;;;;;;;7.61;64.56;103357.59;5102483;28;20123;-59
2022/01/24 04:05:54;;;;;;;20.75;13.27;;;;;;;7.61;64.29;103361.13;5104726;28;20076;-59
2022/01/24 04:08:22;;;;;;;23.38;13.45;;;;;;;7.61;64.48;103360.28;5104052;28;20445;-59
2022/01/24 04:10:54;;;;;;;21.20;14.27;;;;;;;7.60;64.60;103361.25;5104035;28;20062;-58
2022/01/24 04:13:27;;;;;;;19.65;12.82;;;;;;;7.60;65.04;103363.94;5103401;28;20052;-58
2022/01/24 04:16:22;;;;;;;22.45;13.98;;;;;;;7.60;65.01;103363.94;5096923;28;20090;-59
2022/01/24 04:18:56;;;;;;;20.27;14.02;;;;;;;7.60;64.60;103361.25;5101889;28;20052;-58
2022/01/24 04:21:27;;;;;;;21.33;13.95;;;;;;;7.59;64.67;103360.41;5102139;28;20154;-59
2022/01/24 04:24:01;;;;;;;18.63;12.15;;;;;;;7.59;64.07;103352.38;5104095;28;20048;-58
2022/01/24 04:26:30;;;;;;;20.85;13.18;;;;;;;7.58;64.60;103352.53;5104306;28;20048;-59
2022/01/24 04:28:59;;;;;;;21.02;13.00;;;;;;;7.56;65.10;103352.66;5103334;28;20465;-59
2022/01/24 04:31:29;;;;;;;21.48;14.70;;;;;;;7.57;64.24;103357.03;5103475;28;20048;-59
2022/01/24 04:33:57;;;;;;;20.65;13.45;;;;;;;7.57;65.02;103348.16;5103836;28;20048;-58
2022/01/24 04:36:27;;;;;;;20.63;12.93;;;;;;;7.56;64.41;103355.34;5104205;28;20087;-59
2022/01/24 04:38:55;;;;;;;19.52;12.90;;;;;;;7.55;65.36;103359.00;5103281;28;20112;-58
2022/01/24 04:41:26;;;;;;;21.10;13.35;;;;;;;7.54;64.72;103357.31;5103767;28;20147;-58
2022/01/24 04:44:04;;;;;;;19.83;13.13;;;;;;;7.54;64.40;103357.31;5102516;28;20048;-58
2022/01/24 04:46:53;;;;;;;19.33;12.90;;;;;;;7.54;64.27;103357.31;5095309;28;20048;-59
2022/01/24 04:52:21;;;;;;;21.52;11.95;;;;;;;7.55;64.47;103369.72;5098508;28;20379;-58
2022/01/24 04:54:48;;;;;;;21.02;13.77;;;;;;;7.55;64.21;103366.19;5103799;28;20086;-59
2022/01/24 04:57:19;;;;;;;18.75;12.82;;;;;;;7.54;64.88;103372.53;5103191;28;20103;-58
2022/01/24 04:59:50;;;;;;;18.45;12.32;;;;;;;7.51;64.75;103369.16;5102956;28;20541;-59
2022/01/24 05:02:20;;;;;;;23.05;13.32;;;;;;;7.51;64.13;103369.16;5103650;28;20056;-58
2022/01/24 05:04:49;;;;;;;20.33;12.75;;;;;;;7.51;64.14;103373.66;5103978;28;20074;-58
2022/01/24 05:07:16;;;;;;;20.13;14.10;;;;;;;7.49;65.03;103368.44;5102973;28;20087;-57
2022/01/24 05:09:50;;;;;;;20.52;12.95;;;;;;;7.49;65.10;103367.59;5103089;28;20075;-59
2022/01/24 05:12:26;;;;;;;18.90;13.02;;;;;;;7.48;64.67;103368.56;5103041;28;20128;-58
2022/01/24 05:23:30;;;;;;;19.67;12.35;;;;;;;7.46;64.73;103366.03;5102590;28;20083;-59
2022/01/24 05:25:59;;;;;;;19.47;12.50;;;;;;;7.46;64.48;103376.75;5101002;28;20032;-57
2022/01/24 05:28:27;;;;;;;20.35;13.23;;;;;;;7.46;64.77;103368.72;5101457;28;20416;-59
2022/01/24 05:30:55;;;;;;;20.35;13.27;;;;;;;7.46;63.79;103367.88;5102508;28;20103;-59
2022/01/24 05:33:24;;;;;;;20.17;13.40;;;;;;;7.45;64.70;103367.03;5102469;28;20049;-58
2022/01/24 05:35:53;;;;;;;19.42;13.02;;;;;;;7.48;64.74;103369.41;5102490;28;20381;-59
2022/01/24 05:38:22;;;;;;;22.33;14.18;;;;;;;7.48;63.71;103366.75;5097765;28;20130;-58
2022/01/24 05:40:50;;;;;;;21.83;13.80;;;;;;;7.49;64.06;103364.91;5102489;28;20055;-59
2022/01/24 05:43:18;;;;;;;17.92;11.90;;;;;;;7.49;63.90;103364.91;5101826;28;20050;-59
2022/01/24 05:45:46;;;;;;;19.17;13.88;;;;;;;7.48;63.99;103364.06;5099348;28;20254;-58
2022/01/24 05:48:15;;;;;;;22.05;13.77;;;;;;;7.48;64.41;103363.22;5101774;28;20056;-59
2022/01/24 05:50:44;;;;;;;19.50;13.23;;;;;;;7.48;64.23;103364.06;5102080;28;20162;-59
2022/01/24 05:53:11;;;;;;;19.88;12.63;;;;;;;7.47;64.20;103372.25;5102601;28;20087;-59
2022/01/24 05:55:39;;;;;;;21.55;14.02;;;;;;;7.45;63.75;103369.69;5099558;28;20082;-59
2022/01/24 05:58:07;;;;;;;19.73;12.93;;;;;;;7.46;64.31;103376.75;5100808;28;20553;-59
2022/01/24 06:00:35;;;;;;;20.33;13.00;;;;;;;7.46;64.74;103375.91;5101093;28;20106;-59
2022/01/24 06:03:03;;;;;;;19.63;13.25;;;;;;;7.45;64.34;103374.22;5101717;28;20473;-59
2022/01/24 06:05:31;;;;;;;19.95;13.32;;;;;;;7.44;64.66;103376.03;5101562;28;20120;-59
2022/01/24 06:08:00;;;;;;;20.85;12.88;;;;;;;7.43;63.80;103369.00;5094464;28;20048;-59
2022/01/24 06:10:27;;;;;;;19.15;13.18;;;;;;;7.43;64.21;103381.53;5099849;28;20048;-58
2022/01/24 06:12:55;;;;;;;23.00;13.63;;;;;;;7.42;64.27;103372.66;5100322;28;20048;-59
2022/01/24 06:15:23;;;;;;;17.08;11.88;;;;;;;7.41;64.14;103370.13;5101117;28;20074;-59
2022/01/24 06:17:51;;;;;;;21.00;12.88;;;;;;;7.41;64.13;103372.78;5101537;28;20044;-59
2022/01/24 06:20:19;;;;;;;22.73;13.55;;;;;;;7.40;64.45;103374.63;5100318;28;20044;-58
2022/01/24 06:22:47;;;;;;;17.98;11.98;;;;;;;7.41;64.92;103372.78;5101702;28;20079;-58
2022/01/24 06:25:21;;;;;;;20.05;12.88;;;;;;;7.40;64.85;103373.78;5100380;28;20072;-58
2022/01/24 06:27:49;;;;;;;18.52;11.88;;;;;;;7.42;64.94;103377.16;5098489;28;20096;-57
2022/01/24 06:30:17;;;;;;;20.13;13.20;;;;;;;7.40;64.46;103365.75;5100838;28;20052;-59
2022/01/24 06:32:44;;;;;;;20.10;12.77;;;;;;;7.40;64.82;103377.31;5101663;28;20075;-58
2022/01/24 06:35:14;;;;;;;18.10;12.13;;;;;;;7.40;64.66;103371.94;5101887;28;20052;-59
2022/01/24 06:37:42;;;;;;;19.67;12.68;;;;;;;7.38;64.80;103367.72;5101366;28;20048;-56
2022/01/24 06:40:11;;;;;;;18.45;12.30;;;;;;;7.37;64.00;103374.91;5099820;28;20137;-59
2022/01/24 06:42:41;;;;;;;20.48;13.25;;;;;;;7.37;64.22;103374.06;5101044;28;20044;-58
2022/01/24 06:45:10;;;;;;;18.02;12.23;;;;;;;7.36;64.77;103373.22;5099964;28;20103;-57
2022/01/24 06:47:40;;;;;;;19.65;12.82;;;;;;;7.35;64.77;103370.69;5090079;28;20036;-58
2022/01/24 06:50:08;;;;;;;19.63;13.02;;;;;;;7.36;64.31;103375.88;4391472;28;10000850;-58
2022/01/24 06:52:36;;;;;;;18.25;11.07;;;;;;;7.37;64.27;103379.41;5101394;28;20067;-59
2022/01/24 06:55:05;;;;;;;18.88;11.48;;;;;;;7.26;64.49;103361.66;5097079;28;20087;-57
2022/01/24 06:57:32;;;;;;;18.42;11.90;;;;;;;7.34;64.23;103380.53;5097561;28;20154;-59
2022/01/24 07:00:01;;;;;;;18.05;11.30;;;;;;;7.34;64.52;103390.38;5094960;28;20048;-60
2022/01/24 07:02:29;;;;;;;18.08;11.25;;;;;;;7.33;64.77;103386.03;5097407;28;20059;-59
2022/01/24 07:04:57;;;;;;;16.40;10.77;;;;;;;7.31;64.86;103379.97;5097876;28;20063;-57
2022/01/24 07:07:25;;;;;;;17.10;11.77;;;;;;;7.32;64.42;103378.97;5098801;28;20062;-59
2022/01/24 07:09:52;;;;;;;19.65;12.57;;;;;;;7.32;64.80;103378.97;5101248;28;20094;-58
2022/01/24 07:12:22;;;;;;;20.00;12.25;;;;;;;7.31;64.46;103383.47;5100427;28;20051;-59
2022/01/24 07:14:49;;;;;;;17.65;12.15;;;;;;;7.32;64.46;103379.81;5099472;28;20064;-58
2022/01/24 07:17:32;;;;;;;17.02;12.20;;;;;;;7.32;64.41;103384.31;5101135;28;20554;-58
2022/01/24 07:19:59;;;;;;;19.90;11.98;;;;;;;7.33;64.12;103386.88;5101372;28;20491;-58
2022/01/24 07:22:27;;;;;;;18.73;12.38;;;;;;;7.42;63.85;103393.22;5100760;28;20059;-58
2022/01/24 07:24:55;;;;;;;20.35;12.35;;;;;;;7.46;63.91;103379.41;5100815;28;20492;-59
2022/01/24 07:27:23;;;;;;;18.15;11.15;;;;;;;7.67;63.04;103383.81;5098826;28;20074;-57
2022/01/24 07:29:51;;;;;;;21.50;12.38;;;;;;;7.84;62.75;103389.28;5100442;28;20047;-58
2022/01/24 07:32:20;;;;;;;22.13;12.77;;;;;;;8.00;62.42;103388.72;5099998;28;20083;-57
2022/01/24 07:34:48;;;;;;;19.77;12.25;;;;;;;8.15;61.46;103384.63;5101064;28;20052;-58
2022/01/24 07:37:15;;;;;;;18.05;12.13;;;;;;;8.31;60.98;103394.72;5088462;28;20075;-56
2022/01/24 07:39:46;;;;;;;18.38;12.48;;;;;;;8.50;60.24;103395.72;5097448;28;20087;-58
2022/01/24 07:42:17;;;;;;;17.83;12.43;;;;;;;8.66;59.99;103388.75;5094530;28;20120;-57
2022/01/24 07:44:45;;;;;;;18.58;12.07;;;;;;;8.77;59.62;103387.69;5099058;28;20059;-58
2022/01/24 07:47:13;;;;;;;22.75;13.23;;;;;;;8.88;58.96;103390.16;5099403;28;20387;-58
2022/01/24 07:49:42;;;;;;;19.27;12.50;;;;;;;8.96;58.87;103381.38;5098388;28;20072;-57
2022/01/24 07:52:10;;;;;;;19.92;12.27;;;;;;;9.01;59.10;103397.88;5093577;28;20052;-58
2022/01/24 07:54:38;;;;;;;20.40;12.75;;;;;;;9.05;58.74;103389.38;5099795;28;20106;-58
2022/01/24 07:57:06;;;;;;;21.77;13.13;;;;;;;9.08;58.33;103391.75;5099533;28;20171;-57
2022/01/24 07:59:34;;;;;;;20.85;13.23;;;;;;;9.12;57.96;103394.97;5099658;28;20048;-58
2022/01/24 08:02:02;;;;;;;19.02;12.60;;;;;;;9.11;57.93;103391.47;5099049;28;20052;-58
2022/01/24 08:04:30;;;;;;;21.20;13.73;;;;;;;9.12;58.09;103400.34;5099263;28;20370;-57
2022/01/24 08:06:59;;;;;;;19.98;13.20;;;;;;;9.12;58.63;103405.72;5101268;28;20073;-57
2022/01/24 08:09:27;;;;;;;21.23;12.73;;;;;;;9.16;58.26;103417.00;5099796;28;20084;-58
2022/01/24 08:11:55;;;;;;;24.27;13.35;;;;;;;9.16;58.08;103425.03;5099483;28;20087;-58
2022/01/24 08:14:23;;;;;;;19.40;13.02;;;;;;;9.17;57.79;103418.69;5098859;28;20048;-57
2022/01/24 08:16:51;;;;;;;21.77;13.85;;;;;;;9.12;58.66;103419.97;5099528;28;20052;-58
2022/01/24 08:19:19;;;;;;;20.42;14.38;;;;;;;9.00;58.19;103421.16;5098576;28;20480;-58
2022/01/24 08:21:52;;;;;;;21.55;13.40;;;;;;;8.84;58.50;103426.31;5096705;28;20381;-57
2022/01/24 08:24:21;;;;;;;21.15;13.23;;;;;;;8.67;59.64;103432.44;5095499;28;20138;-58
2022/01/24 08:26:49;;;;;;;20.63;12.85;;;;;;;8.48;60.14;103423.50;5099282;28;20071;-57
2022/01/24 08:29:17;;;;;;;20.08;13.45;;;;;;;8.31;60.26;103421.53;5099182;28;20515;-57
2022/01/24 08:31:45;;;;;;;22.33;13.70;;;;;;;8.23;60.76;103424.06;5095743;28;20155;-59
2022/01/24 08:34:12;;;;;;;22.85;13.93;;;;;;;8.14;60.98;103423.09;5095732;28;20139;-57
2022/01/24 08:36:40;;;;;;;20.50;13.90;;;;;;;8.07;61.34;103430.00;5095493;28;20230;-58
2022/01/24 08:39:09;;;;;;;20.30;13.18;;;;;;;8.00;61.89;103425.38;5097562;28;20047;-57
2022/01/24 08:41:45;;;;;;;19.20;13.18;;;;;;;7.91;61.74;103427.06;5098253;28;20048;-56
2022/01/24 08:44:20;;;;;;;19.45;12.32;;;;;;;7.90;62.16;103429.88;5098704;28;20055;-58
2022/01/24 08:46:49;;;;;;;18.98;12.57;;;;;;;7.82;62.05;103431.44;5099180;28;20056;-58
2022/01/24 08:49:17;;;;;;;21.80;13.85;;;;;;;7.78;62.23;103432.69;4745560;28;10000610;-60
2022/01/24 08:51:46;;;;;;;19.42;12.57;;;;;;;7.73;62.33;103432.25;5098750;28;20134;-58
2022/01/24 08:54:33;;;;;;;20.90;13.85;;;;;;;7.71;62.41;103426.19;5099225;28;20063;-58
2022/01/24 08:57:03;;;;;;;19.83;13.02;;;;;;;7.68;62.23;103431.84;5097003;28;20715;-59
2022/01/24 08:59:32;;;;;;;19.38;12.65;;;;;;;7.60;62.40;103425.50;5101724;28;20048;-58
2022/01/24 09:01:59;;;;;;;20.77;13.50;;;;;;;7.61;62.63;103425.34;5101284;28;20048;-58
2022/01/24 09:04:29;;;;;;;21.08;13.02;;;;;;;7.60;62.67;103429.00;5102283;28;20087;-58
2022/01/24 09:06:59;;;;;;;21.48;12.85;;;;;;;7.59;62.19;103435.34;5102760;28;20055;-58
2022/01/24 09:09:27;;;;;;;20.35;13.32;;;;;;;7.58;62.83;103432.81;5101973;28;20058;-59
2022/01/24 09:11:55;;;;;;;20.25;12.75;;;;;;;7.69;62.55;103436.22;5102846;28;20105;-59
2022/01/24 09:14:24;;;;;;;18.85;12.45;;;;;;;7.84;61.81;103442.00;5101680;28;20048;-59
2022/01/24 09:16:52;;;;;;;19.58;12.73;;;;;;;8.05;61.29;103433.81;5101515;28;20100;-58
2022/01/24 09:19:20;;;;;;;21.77;13.68;;;;;;;8.22;59.46;103435.78;5102146;28;20056;-58
2022/01/24 09:21:49;;;;;;;19.98;12.60;;;;;;;8.36;60.05;103430.00;5101248;28;20055;-57
2022/01/24 09:24:17;;;;;;;23.13;14.30;;;;;;;8.54;58.46;103429.28;5101764;28;20051;-59
2022/01/24 09:26:45;;;;;;;19.95;11.98;;;;;;;8.66;58.63;103434.31;5101505;28;20082;-59
2022/01/24 09:29:12;;;;;;;19.73;12.82;;;;;;;8.82;58.29;103441.72;5099951;28;20066;-59
2022/01/24 09:31:42;;;;;;;19.73;12.70;;;;;;;8.94;57.63;103434.31;5100581;28;20095;-59
2022/01/24 09:34:10;;;;;;;19.95;12.75;;;;;;;8.96;57.75;103435.88;5099831;28;20210;-59
2022/01/24 09:36:37;;;;;;;21.30;12.98;;;;;;;8.91;58.05;103432.78;5101999;28;20059;-58
2022/01/24 09:39:05;;;;;;;21.20;12.60;;;;;;;8.79;57.95;103432.13;5101558;28;20051;-57
2022/01/24 09:41:33;;;;;;;17.73;11.95;;;;;;;8.62;59.35;103427.56;5101921;28;20086;-57
2022/01/24 09:44:21;;;;;;;19.83;12.85;;;;;;;8.44;59.35;103427.47;5096492;28;20143;-59
2022/01/24 09:46:50;;;;;;;20.38;12.70;;;;;;;8.32;60.07;103427.72;5101570;28;20044;-58
2022/01/24 09:49:18;;;;;;;20.92;12.82;;;;;;;8.23;59.53;103428.59;5101190;28;20059;-57
2022/01/24 09:51:46;;;;;;;20.00;12.68;;;;;;;8.15;59.69;103429.31;5101722;28;20051;-58
2022/01/24 09:54:13;;;;;;;18.85;12.07;;;;;;;8.08;60.36;103428.19;5101696;28;20048;-58
2022/01/24 09:56:41;;;;;;;18.30;12.00;;;;;;;8.00;60.60;103415.50;5101298;28;20526;-58
2022/01/24 09:59:09;;;;;;;19.92;12.27;;;;;;;7.95;61.41;103433.81;5100752;28;20107;-59
2022/01/24 10:01:37;;;;;;;21.25;13.77;;;;;;;7.88;61.65;103427.34;5101204;28;20036;-58
2022/01/24 10:04:15;;;;;;;19.27;12.02;;;;;;;7.83;61.05;103429.59;5100303;28;20052;-58
2022/01/24 10:07:01;;;;;;;20.73;12.65;;;;;;;7.86;61.17;103434.66;5100341;28;20125;-59
2022/01/24 10:09:30;;;;;;;19.80;12.02;;;;;;;7.92;60.98;103427.91;5100179;28;20047;-58
2022/01/24 10:12:17;;;;;;;20.98;13.45;;;;;;;7.94;60.59;103428.63;5099762;28;20052;-57
2022/01/24 10:17:37;;;;;;;21.05;13.65;;;;;;;7.86;61.03;103428.47;5100792;28;20051;-58
2022/01/24 10:20:19;;;;;;;21.33;12.98;;;;;;;7.83;60.00;103432.28;5100605;28;20104;-59
2022/01/24 10:23:02;;;;;;;22.55;14.07;;;;;;;7.74;59.44;103427.75;5100422;28;20052;-56
2022/01/24 10:25:31;;;;;;;21.63;13.68;;;;;;;7.70;60.54;103426.34;5097405;28;20076;-58
2022/01/24 10:28:03;;;;;;;24.27;14.68;;;;;;;7.74;60.85;103420.56;5100019;28;20044;-59
2022/01/24 10:30:32;;;;;;;22.77;13.90;;;;;;;7.92;61.04;103433.25;5101136;28;20052;-57
2022/01/24 10:33:02;;;;;;;21.40;13.02;;;;;;;8.04;60.65;103424.94;5100825;28;20044;-58
2022/01/24 10:35:37;;;;;;;23.02;12.93;;;;;;;8.26;60.39;103423.78;5100866;28;20059;-59
2022/01/24 10:38:38;;;;;;;21.52;13.70;;;;;;;8.44;59.52;103419.41;5100421;28;20044;-58
2022/01/24 10:41:17;;;;;;;22.25;12.68;;;;;;;8.63;59.06;103418.53;5088924;28;20072;-58
2022/01/24 10:43:47;;;;;;;20.75;12.50;;;;;;;8.79;58.68;103410.66;5098585;28;20063;-57
2022/01/24 10:46:22;;;;;;;18.45;12.15;;;;;;;8.95;57.73;103414.56;5095777;28;20121;-59
2022/01/24 10:49:01;;;;;;;20.58;11.80;;;;;;;9.09;57.62;103404.19;5100215;28;20040;-58
2022/01/24 10:51:37;;;;;;;19.75;12.52;;;;;;;9.09;57.84;103403.34;5101177;28;20052;-57
2022/01/24 10:54:05;;;;;;;20.40;13.00;;;;;;;8.99;57.46;103399.84;5100554;28;20079;-57
2022/01/24 10:56:36;;;;;;;18.80;12.90;;;;;;;8.88;58.64;103402.72;5101059;28;20091;-57
2022/01/24 10:59:21;;;;;;;21.38;13.23;;;;;;;8.70;58.41;103398.16;5099786;28;20449;-58
2022/01/24 11:01:52;;;;;;;20.30;12.88;;;;;;;8.57;59.29;103394.13;5098555;28;20060;-56
2022/01/24 11:04:23;;;;;;;19.50;11.57;;;;;;;8.45;59.59;103394.31;5100397;28;20113;-58
2022/01/24 11:06:56;;;;;;;20.60;11.40;;;;;;;8.38;60.34;103395.88;5099975;28;20112;-57
2022/01/24 11:09:25;;;;;;;19.20;11.65;;;;;;;8.30;59.71;103394.88;5100455;28;20147;-57
2022/01/24 11:11:55;;;;;;;18.95;12.63;;;;;;;8.25;60.58;103400.66;5100824;28;20446;-57
2022/01/24 11:14:25;;;;;;;19.85;12.80;;;;;;;8.20;60.32;103402.09;5099306;28;20060;-58
2022/01/24 11:16:53;;;;;;;24.27;13.48;;;;;;;8.15;61.18;103403.38;5100413;28;20040;-57
2022/01/24 11:19:28;;;;;;;18.63;11.95;;;;;;;8.10;60.73;103392.22;5100495;28;20596;-57
2022/01/24 11:22:00;;;;;;;19.60;12.10;;;;;;;8.05;60.46;103396.31;5100191;28;20496;-55
2022/01/24 11:24:37;;;;;;;19.80;12.40;;;;;;;8.00;60.75;103385.19;5100364;28;20052;-57
2022/01/24 11:27:24;;;;;;;21.15;12.02;;;;;;;7.98;60.39;103396.06;5099702;28;20048;-57
2022/01/24 11:29:54;;;;;;;20.13;13.27;;;;;;;7.95;61.08;103395.50;5099478;28;20072;-57
2022/01/24 11:32:27;;;;;;;18.15;12.32;;;;;;;7.90;61.92;103387.03;5100246;28;20063;-57
2022/01/24 11:34:57;;;;;;;20.70;12.52;;;;;;;7.89;61.49;103396.06;4385082;28;10000799;-56
2022/01/24 11:37:41;;;;;;;20.52;12.77;;;;;;;7.86;61.08;103389.16;5097019;28;20072;-56
2022/01/24 11:40:12;;;;;;;18.58;11.80;;;;;;;7.84;61.13;103391.97;5093490;28;20059;-57
2022/01/24 11:42:43;;;;;;;17.77;11.80;;;;;;;7.84;61.37;103388.44;5094766;28;20036;-57
2022/01/24 11:45:43;;;;;;;19.83;12.38;;;;;;;7.81;61.39;103388.72;5096309;28;20092;-57
2022/01/24 11:48:16;;;;;;;21.58;12.93;;;;;;;7.78;61.93;103387.19;5094187;28;20090;-57
2022/01/24 11:50:55;;;;;;;20.67;13.35;;;;;;;7.78;61.21;103386.34;5096677;28;20048;-57
2022/01/24 11:53:27;;;;;;;20.77;13.68;;;;;;;7.77;60.88;103390.00;5097509;28;20457;-57
2022/01/24 11:55:55;;;;;;;20.08;13.13;;;;;;;7.74;60.36;103390.28;5100536;28;20080;-56
2022/01/24 11:58:28;;;;;;;19.45;13.20;;;;;;;7.74;59.97;103377.75;5099294;28;20105;-57
2022/01/24 12:01:01;;;;;;;19.10;12.57;;;;;;;7.73;60.35;103380.56;5094563;28;20055;-57
2022/01/24 12:03:30;;;;;;;18.38;11.43;;;;;;;7.69;59.98;103373.81;5099732;28;20048;-57
2022/01/24 12:06:08;;;;;;;21.77;12.85;;;;;;;7.72;60.38;103374.38;5100198;28;20067;-56
2022/01/24 12:09:05;;;;;;;21.42;13.43;;;;;;;7.72;60.14;103366.34;5100154;28;20087;-56
2022/01/24 12:11:35;;;;;;;21.85;13.80;;;;;;;7.71;61.19;103364.63;5098097;28;20138;-55
2022/01/24 12:14:37;;;;;;;21.27;12.65;;;;;;;7.71;61.49;103358.44;5098540;28;20108;-57
2022/01/24 12:17:10;;;;;;;21.92;12.93;;;;;;;7.64;61.48;103344.78;5097643;28;20382;-57
2022/01/24 12:19:37;;;;;;;20.80;12.43;;;;;;;7.68;61.53;103356.06;5102220;28;20125;-56
2022/01/24 12:22:34;;;;;;;20.33;12.55;;;;;;;7.69;62.07;103353.22;5102568;28;20048;-58
2022/01/24 12:25:03;;;;;;;20.13;12.32;;;;;;;7.67;61.47;103357.88;5098506;28;20595;-57
2022/01/24 12:27:31;;;;;;;22.10;13.95;;;;;;;7.67;61.30;103357.03;5103399;28;20052;-56
2022/01/24 12:29:59;;;;;;;21.15;12.73;;;;;;;7.68;60.74;103353.38;5101547;28;20036;-56
2022/01/24 12:32:27;;;;;;;19.15;12.13;;;;;;;7.70;59.87;103357.59;5099839;28;20072;-57
2022/01/24 12:34:55;;;;;;;21.55;13.10;;;;;;;7.77;61.11;103356.03;5102089;28;20098;-57